sensor_id;sensor_type;location;lat;lon;timestamp;P1;durP1;ratioP1;P2;durP2;ratioP2
37657;SDS011;23500;53.268;8.308;2023-02-14T00:01:32;5.80;;;5.32;;
37657;SDS011;23500;53.268;8.308;2023-02-14T00:03:57;5.67;;;5.27;;
37657;SDS011;23500;53.268;8.308;2023-02-14T00:06:25;6.35;;;5.75;;
37657;SDS011;23500;53.268;8.308;2023-02-14T00:08:51;6.13;;;5.53;;
37657;SDS011;23500;53.268;8.308;2023-02-14T00:11:18;5.75;;;5.25;;
37657;SDS011;23500;53.268;8.308;2023-02-14T00:13:44;5.87;;;5.37;;
37657;SDS011;23500;53.268;8.308;2023-02-14T00:16:28;5.78;;;5.28;;
37657;SDS011;23500;53.268;8.308;2023-02-14T00:18:54;5.80;;;5.30;;
37657;SDS011;23500;53.268;8.308;2023-02-14T00:21:30;5.70;;;5.20;;
37657;SDS011;23500;53.268;8.308;2023-02-14T00:23:57;5.83;;;5.33;;
37657;SDS011;23500;53.268;8.308;2023-02-14T00:26:22;5.50;;;5.10;;
37657;SDS011;23500;53.268;8.308;2023-02-14T00:28:48;6.37;;;5.87;;
37657;SDS011;23500;53.268;8.308;2023-02-14T00:31:13;6.17;;;5.67;;
37657;SDS011;23500;53.268;8.308;2023-02-14T00:33:39;6.07;;;5.57;;
37657;SDS011;23500;53.268;8.308;2023-02-14T00:36:05;6.03;;;5.47;;
37657;SDS011;23500;53.268;8.308;2023-02-14T00:38:32;5.90;;;5.40;;
37657;SDS011;23500;53.268;8.308;2023-02-14T00:40:58;5.87;;;5.37;;
37657;SDS011;23500;53.268;8.308;2023-02-14T00:43:23;5.82;;;5.32;;
37657;SDS011;23500;53.268;8.308;2023-02-14T00:45:49;5.43;;;4.97;;
37657;SDS011;23500;53.268;8.308;2023-02-14T00:48:15;5.33;;;4.90;;
37657;SDS011;23500;53.268;8.308;2023-02-14T00:50:41;5.50;;;5.00;;
37657;SDS011;23500;53.268;8.308;2023-02-14T00:53:09;5.87;;;5.37;;
37657;SDS011;23500;53.268;8.308;2023-02-14T00:55:35;6.22;;;5.70;;
37657;SDS011;23500;53.268;8.308;2023-02-14T00:58:01;5.43;;;5.03;;
37657;SDS011;23500;53.268;8.308;2023-02-14T01:00:26;5.73;;;5.23;;
37657;SDS011;23500;53.268;8.308;2023-02-14T01:02:52;6.00;;;5.50;;
37657;SDS011;23500;53.268;8.308;2023-02-14T01:05:17;5.50;;;5.00;;
37657;SDS011;23500;53.268;8.308;2023-02-14T01:07:43;5.30;;;4.90;;
37657;SDS011;23500;53.268;8.308;2023-02-14T01:10:09;6.07;;;5.57;;
37657;SDS011;23500;53.268;8.308;2023-02-14T01:12:35;5.82;;;5.32;;
37657;SDS011;23500;53.268;8.308;2023-02-14T01:15:00;5.67;;;5.17;;
37657;SDS011;23500;53.268;8.308;2023-02-14T01:17:26;5.80;;;5.30;;
37657;SDS011;23500;53.268;8.308;2023-02-14T01:19:52;5.83;;;5.33;;
37657;SDS011;23500;53.268;8.308;2023-02-14T01:22:18;5.60;;;5.10;;
37657;SDS011;23500;53.268;8.308;2023-02-14T01:24:43;5.93;;;5.07;;
37657;SDS011;23500;53.268;8.308;2023-02-14T01:27:09;5.90;;;5.40;;
37657;SDS011;23500;53.268;8.308;2023-02-14T01:29:35;5.87;;;5.37;;
37657;SDS011;23500;53.268;8.308;2023-02-14T01:32:01;5.55;;;5.05;;
37657;SDS011;23500;53.268;8.308;2023-02-14T01:34:26;5.60;;;5.10;;
37657;SDS011;23500;53.268;8.308;2023-02-14T01:36:52;5.97;;;4.97;;
37657;SDS011;23500;53.268;8.308;2023-02-14T01:39:18;5.27;;;4.87;;
37657;SDS011;23500;53.268;8.308;2023-02-14T01:41:44;5.03;;;4.60;;
37657;SDS011;23500;53.268;8.308;2023-02-14T01:46:40;5.30;;;4.90;;
37657;SDS011;23500;53.268;8.308;2023-02-14T01:49:13;5.70;;;5.20;;
37657;SDS011;23500;53.268;8.308;2023-02-14T01:51:49;5.60;;;5.13;;
37657;SDS011;23500;53.268;8.308;2023-02-14T01:54:18;5.30;;;4.90;;
37657;SDS011;23500;53.268;8.308;2023-02-14T01:56:48;5.50;;;5.00;;
37657;SDS011;23500;53.268;8.308;2023-02-14T01:59:19;5.80;;;5.30;;
37657;SDS011;23500;53.268;8.308;2023-02-14T02:01:48;5.40;;;4.90;;
37657;SDS011;23500;53.268;8.308;2023-02-14T02:04:16;5.40;;;4.90;;
37657;SDS011;23500;53.268;8.308;2023-02-14T02:06:53;5.60;;;5.10;;
37657;SDS011;23500;53.268;8.308;2023-02-14T02:09:27;5.77;;;5.27;;
37657;SDS011;23500;53.268;8.308;2023-02-14T02:11:58;5.90;;;5.40;;
37657;SDS011;23500;53.268;8.308;2023-02-14T02:14:25;5.80;;;5.30;;
37657;SDS011;23500;53.268;8.308;2023-02-14T02:17:13;5.67;;;5.17;;
37657;SDS011;23500;53.268;8.308;2023-02-14T02:25:07;5.10;;;4.70;;
37657;SDS011;23500;53.268;8.308;2023-02-14T02:30:35;5.40;;;4.90;;
37657;SDS011;23500;53.268;8.308;2023-02-14T02:43:42;4.20;;;3.90;;
37657;SDS011;23500;53.268;8.308;2023-02-14T02:54:35;3.65;;;3.45;;
37657;SDS011;23500;53.268;8.308;2023-02-14T02:57:04;4.10;;;3.80;;
37657;SDS011;23500;53.268;8.308;2023-02-14T02:59:37;4.05;;;3.70;;
37657;SDS011;23500;53.268;8.308;2023-02-14T03:04:53;3.67;;;3.45;;
37657;SDS011;23500;53.268;8.308;2023-02-14T03:07:28;4.10;;;3.80;;
37657;SDS011;23500;53.268;8.308;2023-02-14T03:15:27;4.30;;;4.00;;
37657;SDS011;23500;53.268;8.308;2023-02-14T03:24:02;3.85;;;3.55;;
37657;SDS011;23500;53.268;8.308;2023-02-14T03:26:42;4.20;;;3.90;;
37657;SDS011;23500;53.268;8.308;2023-02-14T03:34:31;5.47;;;4.97;;
37657;SDS011;23500;53.268;8.308;2023-02-14T03:37:53;5.88;;;5.38;;
37657;SDS011;23500;53.268;8.308;2023-02-14T03:40:10;5.57;;;5.07;;
37657;SDS011;23500;53.268;8.308;2023-02-14T03:43:00;4.90;;;4.50;;
37657;SDS011;23500;53.268;8.308;2023-02-14T03:45:43;5.07;;;4.68;;
37657;SDS011;23500;53.268;8.308;2023-02-14T03:48:18;5.10;;;4.70;;
37657;SDS011;23500;53.268;8.308;2023-02-14T03:50:48;4.60;;;4.30;;
37657;SDS011;23500;53.268;8.308;2023-02-14T03:53:16;4.53;;;4.13;;
37657;SDS011;23500;53.268;8.308;2023-02-14T03:55:49;4.65;;;4.25;;
37657;SDS011;23500;53.268;8.308;2023-02-14T03:58:26;4.15;;;3.83;;
37657;SDS011;23500;53.268;8.308;2023-02-14T04:00:58;4.28;;;3.97;;
37657;SDS011;23500;53.268;8.308;2023-02-14T04:03:28;4.20;;;3.90;;
37657;SDS011;23500;53.268;8.308;2023-02-14T04:05:57;4.05;;;3.75;;
37657;SDS011;23500;53.268;8.308;2023-02-14T04:08:24;4.45;;;4.15;;
37657;SDS011;23500;53.268;8.308;2023-02-14T04:10:53;4.38;;;3.97;;
37657;SDS011;23500;53.268;8.308;2023-02-14T04:13:22;4.57;;;4.20;;
37657;SDS011;23500;53.268;8.308;2023-02-14T04:15:48;4.90;;;4.50;;
37657;SDS011;23500;53.268;8.308;2023-02-14T04:18:14;4.95;;;4.55;;
37657;SDS011;23500;53.268;8.308;2023-02-14T04:20:58;4.60;;;4.20;;
37657;SDS011;23500;53.268;8.308;2023-02-14T04:23:23;4.63;;;4.22;;
37657;SDS011;23500;53.268;8.308;2023-02-14T04:25:49;5.72;;;5.20;;
37657;SDS011;23500;53.268;8.308;2023-02-14T04:28:15;5.78;;;5.28;;
37657;SDS011;23500;53.268;8.308;2023-02-14T04:30:40;5.85;;;5.35;;
37657;SDS011;23500;53.268;8.308;2023-02-14T04:33:06;4.95;;;4.47;;
37657;SDS011;23500;53.268;8.308;2023-02-14T04:35:32;5.50;;;5.03;;
37657;SDS011;23500;53.268;8.308;2023-02-14T04:37:59;5.22;;;4.72;;
37657;SDS011;23500;53.268;8.308;2023-02-14T04:40:26;5.38;;;4.88;;
37657;SDS011;23500;53.268;8.308;2023-02-14T04:42:52;5.32;;;4.85;;
37657;SDS011;23500;53.268;8.308;2023-02-14T04:45:18;5.50;;;5.00;;
37657;SDS011;23500;53.268;8.308;2023-02-14T04:47:43;5.60;;;5.10;;
37657;SDS011;23500;53.268;8.308;2023-02-14T04:50:09;5.20;;;4.70;;
37657;SDS011;23500;53.268;8.308;2023-02-14T04:52:35;4.80;;;4.40;;
37657;SDS011;23500;53.268;8.308;2023-02-14T04:55:01;5.40;;;4.85;;
37657;SDS011;23500;53.268;8.308;2023-02-14T04:57:28;5.00;;;4.50;;
37657;SDS011;23500;53.268;8.308;2023-02-14T04:59:54;5.03;;;4.60;;
37657;SDS011;23500;53.268;8.308;2023-02-14T05:02:19;5.00;;;4.60;;
37657;SDS011;23500;53.268;8.308;2023-02-14T05:04:45;4.97;;;4.47;;
37657;SDS011;23500;53.268;8.308;2023-02-14T05:07:11;4.35;;;3.95;;
37657;SDS011;23500;53.268;8.308;2023-02-14T05:09:36;4.53;;;4.13;;
37657;SDS011;23500;53.268;8.308;2023-02-14T05:12:02;4.60;;;4.25;;
37657;SDS011;23500;53.268;8.308;2023-02-14T05:14:28;4.50;;;4.10;;
37657;SDS011;23500;53.268;8.308;2023-02-14T05:16:53;4.65;;;4.25;;
37657;SDS011;23500;53.268;8.308;2023-02-14T05:19:19;3.75;;;3.45;;
37657;SDS011;23500;53.268;8.308;2023-02-14T05:21:45;4.65;;;4.25;;
37657;SDS011;23500;53.268;8.308;2023-02-14T05:24:11;4.70;;;4.30;;
37657;SDS011;23500;53.268;8.308;2023-02-14T05:26:36;4.57;;;4.18;;
37657;SDS011;23500;53.268;8.308;2023-02-14T05:29:02;4.53;;;4.13;;
37657;SDS011;23500;53.268;8.308;2023-02-14T05:31:28;4.80;;;4.40;;
37657;SDS011;23500;53.268;8.308;2023-02-14T05:33:53;4.82;;;4.40;;
37657;SDS011;23500;53.268;8.308;2023-02-14T05:36:19;4.80;;;4.40;;
37657;SDS011;23500;53.268;8.308;2023-02-14T05:38:45;5.03;;;4.53;;
37657;SDS011;23500;53.268;8.308;2023-02-14T05:41:10;5.35;;;4.85;;
37657;SDS011;23500;53.268;8.308;2023-02-14T05:43:36;4.85;;;4.45;;
37657;SDS011;23500;53.268;8.308;2023-02-14T05:46:04;4.93;;;4.53;;
37657;SDS011;23500;53.268;8.308;2023-02-14T05:48:29;4.88;;;4.38;;
37657;SDS011;23500;53.268;8.308;2023-02-14T05:50:55;4.40;;;4.07;;
37657;SDS011;23500;53.268;8.308;2023-02-14T05:53:21;3.97;;;3.67;;
37657;SDS011;23500;53.268;8.308;2023-02-14T05:55:46;4.32;;;3.97;;
37657;SDS011;23500;53.268;8.308;2023-02-14T05:58:12;4.65;;;4.25;;
37657;SDS011;23500;53.268;8.308;2023-02-14T06:00:38;3.72;;;3.42;;
37657;SDS011;23500;53.268;8.308;2023-02-14T06:03:04;3.88;;;3.58;;
37657;SDS011;23500;53.268;8.308;2023-02-14T06:05:30;3.72;;;3.42;;
37657;SDS011;23500;53.268;8.308;2023-02-14T06:07:55;3.85;;;3.55;;
37657;SDS011;23500;53.268;8.308;2023-02-14T06:10:22;3.97;;;3.67;;
37657;SDS011;23500;53.268;8.308;2023-02-14T06:12:49;3.85;;;3.55;;
37657;SDS011;23500;53.268;8.308;2023-02-14T06:15:16;3.88;;;3.58;;
37657;SDS011;23500;53.268;8.308;2023-02-14T06:17:42;3.85;;;3.55;;
37657;SDS011;23500;53.268;8.308;2023-02-14T06:20:08;4.07;;;3.78;;
37657;SDS011;23500;53.268;8.308;2023-02-14T06:22:35;4.25;;;3.85;;
37657;SDS011;23500;53.268;8.308;2023-02-14T06:25:01;4.53;;;4.13;;
37657;SDS011;23500;53.268;8.308;2023-02-14T06:27:28;4.00;;;3.70;;
37657;SDS011;23500;53.268;8.308;2023-02-14T06:29:54;4.03;;;3.72;;
37657;SDS011;23500;53.268;8.308;2023-02-14T06:32:20;4.55;;;4.15;;
37657;SDS011;23500;53.268;8.308;2023-02-14T06:34:46;4.38;;;3.97;;
37657;SDS011;23500;53.268;8.308;2023-02-14T06:37:12;4.78;;;4.38;;
37657;SDS011;23500;53.268;8.308;2023-02-14T06:39:37;4.40;;;4.00;;
37657;SDS011;23500;53.268;8.308;2023-02-14T06:42:03;4.10;;;3.80;;
37657;SDS011;23500;53.268;8.308;2023-02-14T06:44:29;4.82;;;4.30;;
37657;SDS011;23500;53.268;8.308;2023-02-14T06:46:54;4.25;;;3.85;;
37657;SDS011;23500;53.268;8.308;2023-02-14T06:49:20;6.10;;;4.45;;
37657;SDS011;23500;53.268;8.308;2023-02-14T06:51:48;5.47;;;4.40;;
37657;SDS011;23500;53.268;8.308;2023-02-14T06:54:14;6.40;;;5.15;;
37657;SDS011;23500;53.268;8.308;2023-02-14T06:56:39;5.05;;;4.55;;
37657;SDS011;23500;53.268;8.308;2023-02-14T06:59:05;5.95;;;4.20;;
37657;SDS011;23500;53.268;8.308;2023-02-14T07:01:31;5.47;;;4.32;;
37657;SDS011;23500;53.268;8.308;2023-02-14T07:03:56;5.97;;;4.20;;
37657;SDS011;23500;53.268;8.308;2023-02-14T07:06:22;7.65;;;4.38;;
37657;SDS011;23500;53.268;8.308;2023-02-14T07:08:48;5.90;;;4.50;;
37657;SDS011;23500;53.268;8.308;2023-02-14T07:11:13;6.38;;;4.53;;
37657;SDS011;23500;53.268;8.308;2023-02-14T07:13:39;5.78;;;4.22;;
37657;SDS011;23500;53.268;8.308;2023-02-14T07:16:05;6.43;;;4.80;;
37657;SDS011;23500;53.268;8.308;2023-02-14T07:18:30;5.38;;;4.45;;
37657;SDS011;23500;53.268;8.308;2023-02-14T07:20:56;6.50;;;4.63;;
37657;SDS011;23500;53.268;8.308;2023-02-14T07:23:22;7.00;;;4.60;;
37657;SDS011;23500;53.268;8.308;2023-02-14T07:25:47;6.50;;;4.50;;
37657;SDS011;23500;53.268;8.308;2023-02-14T07:28:13;7.80;;;4.90;;
37657;SDS011;23500;53.268;8.308;2023-02-14T07:30:38;6.53;;;4.25;;
37657;SDS011;23500;53.268;8.308;2023-02-14T07:33:04;6.72;;;4.43;;
37657;SDS011;23500;53.268;8.308;2023-02-14T07:35:30;11.70;;;4.70;;
37657;SDS011;23500;53.268;8.308;2023-02-14T07:37:56;7.60;;;4.95;;
37657;SDS011;23500;53.268;8.308;2023-02-14T07:40:23;7.68;;;4.78;;
37657;SDS011;23500;53.268;8.308;2023-02-14T07:42:52;8.32;;;4.30;;
37657;SDS011;23500;53.268;8.308;2023-02-14T07:45:19;5.85;;;4.50;;
37657;SDS011;23500;53.268;8.308;2023-02-14T07:47:49;6.57;;;4.53;;
37657;SDS011;23500;53.268;8.308;2023-02-14T07:50:16;5.97;;;4.70;;
37657;SDS011;23500;53.268;8.308;2023-02-14T07:52:42;6.53;;;4.65;;
37657;SDS011;23500;53.268;8.308;2023-02-14T07:55:09;6.22;;;4.82;;
37657;SDS011;23500;53.268;8.308;2023-02-14T07:57:35;8.90;;;4.90;;
37657;SDS011;23500;53.268;8.308;2023-02-14T08:00:01;8.82;;;5.05;;
37657;SDS011;23500;53.268;8.308;2023-02-14T08:02:28;9.18;;;5.32;;
37657;SDS011;23500;53.268;8.308;2023-02-14T08:04:54;7.18;;;4.93;;
37657;SDS011;23500;53.268;8.308;2023-02-14T08:07:19;6.87;;;4.83;;
37657;SDS011;23500;53.268;8.308;2023-02-14T08:09:45;7.20;;;5.07;;
37657;SDS011;23500;53.268;8.308;2023-02-14T08:12:11;7.53;;;5.10;;
37657;SDS011;23500;53.268;8.308;2023-02-14T08:14:55;8.63;;;4.93;;
37657;SDS011;23500;53.268;8.308;2023-02-14T08:17:40;7.47;;;4.95;;
37657;SDS011;23500;53.268;8.308;2023-02-14T08:20:06;7.73;;;4.80;;
37657;SDS011;23500;53.268;8.308;2023-02-14T08:22:32;6.68;;;5.00;;
37657;SDS011;23500;53.268;8.308;2023-02-14T08:24:58;7.55;;;4.78;;
37657;SDS011;23500;53.268;8.308;2023-02-14T08:27:23;7.70;;;5.57;;
37657;SDS011;23500;53.268;8.308;2023-02-14T08:29:49;8.40;;;5.15;;
37657;SDS011;23500;53.268;8.308;2023-02-14T08:32:15;8.20;;;5.28;;
37657;SDS011;23500;53.268;8.308;2023-02-14T08:34:44;11.05;;;5.43;;
37657;SDS011;23500;53.268;8.308;2023-02-14T08:37:10;8.90;;;5.80;;
37657;SDS011;23500;53.268;8.308;2023-02-14T08:39:37;9.68;;;5.47;;
37657;SDS011;23500;53.268;8.308;2023-02-14T08:42:03;6.70;;;4.90;;
37657;SDS011;23500;53.268;8.308;2023-02-14T08:44:29;9.43;;;5.70;;
37657;SDS011;23500;53.268;8.308;2023-02-14T08:46:55;8.63;;;5.05;;
37657;SDS011;23500;53.268;8.308;2023-02-14T08:49:21;9.10;;;4.97;;
37657;SDS011;23500;53.268;8.308;2023-02-14T08:51:46;7.60;;;5.13;;
37657;SDS011;23500;53.268;8.308;2023-02-14T08:54:12;8.13;;;4.90;;
37657;SDS011;23500;53.268;8.308;2023-02-14T08:56:38;7.50;;;5.13;;
37657;SDS011;23500;53.268;8.308;2023-02-14T08:59:04;7.25;;;5.20;;
37657;SDS011;23500;53.268;8.308;2023-02-14T09:01:30;8.75;;;5.57;;
37657;SDS011;23500;53.268;8.308;2023-02-14T09:03:56;8.30;;;5.00;;
37657;SDS011;23500;53.268;8.308;2023-02-14T09:06:22;8.55;;;5.22;;
37657;SDS011;23500;53.268;8.308;2023-02-14T09:08:47;7.95;;;5.28;;
37657;SDS011;23500;53.268;8.308;2023-02-14T09:11:18;8.38;;;5.43;;
37657;SDS011;23500;53.268;8.308;2023-02-14T09:13:46;8.50;;;5.60;;
37657;SDS011;23500;53.268;8.308;2023-02-14T09:16:13;8.65;;;5.63;;
37657;SDS011;23500;53.268;8.308;2023-02-14T09:18:41;8.30;;;5.43;;
37657;SDS011;23500;53.268;8.308;2023-02-14T09:21:09;8.43;;;5.10;;
37657;SDS011;23500;53.268;8.308;2023-02-14T09:23:37;9.07;;;5.40;;
37657;SDS011;23500;53.268;8.308;2023-02-14T09:26:04;7.75;;;5.20;;
37657;SDS011;23500;53.268;8.308;2023-02-14T09:28:32;8.00;;;5.30;;
37657;SDS011;23500;53.268;8.308;2023-02-14T09:31:02;8.10;;;5.63;;
37657;SDS011;23500;53.268;8.308;2023-02-14T09:33:36;7.53;;;5.22;;
37657;SDS011;23500;53.268;8.308;2023-02-14T09:36:02;7.85;;;5.35;;
37657;SDS011;23500;53.268;8.308;2023-02-14T09:38:37;8.27;;;5.50;;
37657;SDS011;23500;53.268;8.308;2023-02-14T09:41:06;8.57;;;5.50;;
37657;SDS011;23500;53.268;8.308;2023-02-14T09:43:38;6.07;;;4.95;;
37657;SDS011;23500;53.268;8.308;2023-02-14T09:46:10;6.85;;;4.80;;
37657;SDS011;23500;53.268;8.308;2023-02-14T09:48:39;8.48;;;5.55;;
37657;SDS011;23500;53.268;8.308;2023-02-14T09:51:10;8.90;;;5.32;;
37657;SDS011;23500;53.268;8.308;2023-02-14T09:53:49;7.80;;;5.55;;
37657;SDS011;23500;53.268;8.308;2023-02-14T10:01:28;7.65;;;4.93;;
37657;SDS011;23500;53.268;8.308;2023-02-14T10:06:32;7.13;;;5.47;;
37657;SDS011;23500;53.268;8.308;2023-02-14T10:11:42;8.45;;;5.35;;
37657;SDS011;23500;53.268;8.308;2023-02-14T10:14:10;8.90;;;5.40;;
37657;SDS011;23500;53.268;8.308;2023-02-14T10:21:53;7.93;;;4.93;;
37657;SDS011;23500;53.268;8.308;2023-02-14T10:24:24;7.47;;;5.35;;
37657;SDS011;23500;53.268;8.308;2023-02-14T10:27:11;6.68;;;4.88;;
37657;SDS011;23500;53.268;8.308;2023-02-14T10:29:50;8.82;;;5.10;;
37657;SDS011;23500;53.268;8.308;2023-02-14T10:32:18;8.77;;;5.13;;
37657;SDS011;23500;53.268;8.308;2023-02-14T10:34:50;8.38;;;5.13;;
37657;SDS011;23500;53.268;8.308;2023-02-14T10:56:34;8.05;;;5.32;;
37657;SDS011;23500;53.268;8.308;2023-02-14T10:59:27;6.28;;;5.00;;
37657;SDS011;23500;53.268;8.308;2023-02-14T11:01:58;7.32;;;4.95;;
37657;SDS011;23500;53.268;8.308;2023-02-14T11:04:25;7.55;;;4.90;;
37657;SDS011;23500;53.268;8.308;2023-02-14T11:06:51;7.47;;;4.83;;
37657;SDS011;23500;53.268;8.308;2023-02-14T11:09:17;7.60;;;5.10;;
37657;SDS011;23500;53.268;8.308;2023-02-14T11:11:45;7.15;;;4.70;;
37657;SDS011;23500;53.268;8.308;2023-02-14T11:16:49;6.37;;;4.90;;
37657;SDS011;23500;53.268;8.308;2023-02-14T11:21:45;7.93;;;5.03;;
37657;SDS011;23500;53.268;8.308;2023-02-14T11:26:50;7.32;;;4.70;;
37657;SDS011;23500;53.268;8.308;2023-02-14T11:32:14;8.00;;;5.10;;
37657;SDS011;23500;53.268;8.308;2023-02-14T11:34:45;7.47;;;5.00;;
37657;SDS011;23500;53.268;8.308;2023-02-14T11:39:47;8.35;;;5.18;;
37657;SDS011;23500;53.268;8.308;2023-02-14T11:42:13;8.90;;;5.13;;
37657;SDS011;23500;53.268;8.308;2023-02-14T11:45:26;7.35;;;5.05;;
37657;SDS011;23500;53.268;8.308;2023-02-14T11:48:05;6.03;;;5.00;;
37657;SDS011;23500;53.268;8.308;2023-02-14T11:50:31;6.57;;;4.60;;
37657;SDS011;23500;53.268;8.308;2023-02-14T11:52:57;7.13;;;4.90;;
37657;SDS011;23500;53.268;8.308;2023-02-14T11:55:27;6.30;;;4.68;;
37657;SDS011;23500;53.268;8.308;2023-02-14T11:57:59;7.00;;;4.93;;
37657;SDS011;23500;53.268;8.308;2023-02-14T12:00:27;7.37;;;5.13;;
37657;SDS011;23500;53.268;8.308;2023-02-14T12:02:55;7.10;;;4.88;;
37657;SDS011;23500;53.268;8.308;2023-02-14T12:07:57;7.28;;;4.95;;
37657;SDS011;23500;53.268;8.308;2023-02-14T12:10:29;6.70;;;4.88;;
37657;SDS011;23500;53.268;8.308;2023-02-14T12:18:09;7.20;;;4.97;;
37657;SDS011;23500;53.268;8.308;2023-02-14T12:28:54;6.53;;;5.30;;
37657;SDS011;23500;53.268;8.308;2023-02-14T12:31:26;6.70;;;4.68;;
37657;SDS011;23500;53.268;8.308;2023-02-14T12:33:52;6.85;;;5.38;;
37657;SDS011;23500;53.268;8.308;2023-02-14T12:44:18;7.07;;;4.70;;
37657;SDS011;23500;53.268;8.308;2023-02-14T13:06:37;5.80;;;4.53;;
37657;SDS011;23500;53.268;8.308;2023-02-14T13:12:02;5.95;;;4.50;;
37657;SDS011;23500;53.268;8.308;2023-02-14T13:22:27;4.65;;;4.10;;
37657;SDS011;23500;53.268;8.308;2023-02-14T13:28:02;5.50;;;4.18;;
37657;SDS011;23500;53.268;8.308;2023-02-14T13:30:31;5.30;;;4.00;;
37657;SDS011;23500;53.268;8.308;2023-02-14T13:33:04;5.38;;;4.05;;
37657;SDS011;23500;53.268;8.308;2023-02-14T13:35:44;4.43;;;3.80;;
37657;SDS011;23500;53.268;8.308;2023-02-14T13:38:11;4.60;;;4.18;;
37657;SDS011;23500;53.268;8.308;2023-02-14T13:40:39;5.72;;;4.00;;
37657;SDS011;23500;53.268;8.308;2023-02-14T13:43:05;5.38;;;3.78;;
37657;SDS011;23500;53.268;8.308;2023-02-14T13:48:11;5.68;;;4.05;;
37657;SDS011;23500;53.268;8.308;2023-02-14T13:50:47;4.72;;;3.92;;
37657;SDS011;23500;53.268;8.308;2023-02-14T13:53:29;4.60;;;3.80;;
37657;SDS011;23500;53.268;8.308;2023-02-14T14:17:30;5.43;;;4.05;;
37657;SDS011;23500;53.268;8.308;2023-02-14T14:19:58;4.78;;;3.90;;
37657;SDS011;23500;53.268;8.308;2023-02-14T14:22:25;4.20;;;3.78;;
37657;SDS011;23500;53.268;8.308;2023-02-14T14:24:52;5.95;;;4.05;;
37657;SDS011;23500;53.268;8.308;2023-02-14T14:30:21;4.82;;;3.70;;
37657;SDS011;23500;53.268;8.308;2023-02-14T14:32:54;4.20;;;3.72;;
37657;SDS011;23500;53.268;8.308;2023-02-14T14:35:22;4.60;;;3.70;;
37657;SDS011;23500;53.268;8.308;2023-02-14T14:37:52;4.75;;;3.67;;
37657;SDS011;23500;53.268;8.308;2023-02-14T14:42:50;4.85;;;3.70;;
37657;SDS011;23500;53.268;8.308;2023-02-14T14:45:22;4.05;;;3.63;;
37657;SDS011;23500;53.268;8.308;2023-02-14T14:47:50;4.00;;;3.28;;
37657;SDS011;23500;53.268;8.308;2023-02-14T14:50:23;4.65;;;3.70;;
37657;SDS011;23500;53.268;8.308;2023-02-14T14:52:54;5.00;;;3.72;;
37657;SDS011;23500;53.268;8.308;2023-02-14T14:55:24;4.53;;;3.75;;
37657;SDS011;23500;53.268;8.308;2023-02-14T14:57:59;4.45;;;3.78;;
37657;SDS011;23500;53.268;8.308;2023-02-14T15:00:28;4.60;;;3.75;;
37657;SDS011;23500;53.268;8.308;2023-02-14T15:05:37;4.28;;;3.88;;
37657;SDS011;23500;53.268;8.308;2023-02-14T15:10:59;4.32;;;3.55;;
37657;SDS011;23500;53.268;8.308;2023-02-14T15:14:18;5.10;;;3.90;;
37657;SDS011;23500;53.268;8.308;2023-02-14T15:16:50;5.35;;;3.80;;
37657;SDS011;23500;53.268;8.308;2023-02-14T15:19:25;3.85;;;3.40;;
37657;SDS011;23500;53.268;8.308;2023-02-14T15:22:05;4.57;;;3.80;;
37657;SDS011;23500;53.268;8.308;2023-02-14T15:24:41;4.38;;;3.42;;
37657;SDS011;23500;53.268;8.308;2023-02-14T15:27:10;4.18;;;3.58;;
37657;SDS011;23500;53.268;8.308;2023-02-14T15:32:21;4.65;;;3.95;;
37657;SDS011;23500;53.268;8.308;2023-02-14T15:34:48;4.07;;;3.55;;
37657;SDS011;23500;53.268;8.308;2023-02-14T15:37:14;3.72;;;3.40;;
37657;SDS011;23500;53.268;8.308;2023-02-14T15:39:42;3.47;;;3.17;;
37657;SDS011;23500;53.268;8.308;2023-02-14T15:42:19;3.88;;;3.40;;
37657;SDS011;23500;53.268;8.308;2023-02-14T15:47:45;3.83;;;3.22;;
37657;SDS011;23500;53.268;8.308;2023-02-14T15:50:13;4.18;;;3.40;;
37657;SDS011;23500;53.268;8.308;2023-02-14T15:56:17;3.67;;;3.22;;
37657;SDS011;23500;53.268;8.308;2023-02-14T15:58:48;4.63;;;3.67;;
37657;SDS011;23500;53.268;8.308;2023-02-14T16:01:22;4.10;;;3.25;;
37657;SDS011;23500;53.268;8.308;2023-02-14T16:03:52;3.92;;;3.30;;
37657;SDS011;23500;53.268;8.308;2023-02-14T16:06:40;3.38;;;3.08;;
37657;SDS011;23500;53.268;8.308;2023-02-14T16:09:29;3.83;;;3.40;;
37657;SDS011;23500;53.268;8.308;2023-02-14T16:11:58;4.00;;;3.00;;
37657;SDS011;23500;53.268;8.308;2023-02-14T16:14:34;4.25;;;3.40;;
37657;SDS011;23500;53.268;8.308;2023-02-14T16:17:02;4.55;;;3.70;;
37657;SDS011;23500;53.268;8.308;2023-02-14T16:19:30;3.45;;;3.00;;
37657;SDS011;23500;53.268;8.308;2023-02-14T16:21:57;4.25;;;3.28;;
37657;SDS011;23500;53.268;8.308;2023-02-14T16:24:23;4.10;;;3.30;;
37657;SDS011;23500;53.268;8.308;2023-02-14T16:26:49;4.38;;;3.72;;
37657;SDS011;23500;53.268;8.308;2023-02-14T16:29:15;4.03;;;3.50;;
37657;SDS011;23500;53.268;8.308;2023-02-14T16:31:51;4.18;;;3.50;;
37657;SDS011;23500;53.268;8.308;2023-02-14T16:34:18;3.72;;;3.35;;
37657;SDS011;23500;53.268;8.308;2023-02-14T16:36:45;4.03;;;3.63;;
37657;SDS011;23500;53.268;8.308;2023-02-14T16:39:17;3.92;;;3.40;;
37657;SDS011;23500;53.268;8.308;2023-02-14T16:41:47;3.20;;;2.90;;
37657;SDS011;23500;53.268;8.308;2023-02-14T16:44:14;3.97;;;3.58;;
37657;SDS011;23500;53.268;8.308;2023-02-14T16:46:41;3.95;;;3.53;;
37657;SDS011;23500;53.268;8.308;2023-02-14T16:49:09;4.20;;;3.67;;
37657;SDS011;23500;53.268;8.308;2023-02-14T16:51:36;4.60;;;4.10;;
37657;SDS011;23500;53.268;8.308;2023-02-14T16:54:04;4.82;;;3.90;;
37657;SDS011;23500;53.268;8.308;2023-02-14T16:56:33;4.20;;;3.80;;
37657;SDS011;23500;53.268;8.308;2023-02-14T16:59:23;4.38;;;3.97;;
37657;SDS011;23500;53.268;8.308;2023-02-14T17:01:49;4.55;;;4.05;;
37657;SDS011;23500;53.268;8.308;2023-02-14T17:04:15;4.18;;;3.83;;
37657;SDS011;23500;53.268;8.308;2023-02-14T17:06:42;4.05;;;3.70;;
37657;SDS011;23500;53.268;8.308;2023-02-14T17:09:12;4.38;;;3.90;;
37657;SDS011;23500;53.268;8.308;2023-02-14T17:11:44;4.60;;;4.20;;
37657;SDS011;23500;53.268;8.308;2023-02-14T17:14:13;4.40;;;3.97;;
37657;SDS011;23500;53.268;8.308;2023-02-14T17:16:44;4.22;;;3.83;;
37657;SDS011;23500;53.268;8.308;2023-02-14T17:19:10;4.45;;;4.05;;
37657;SDS011;23500;53.268;8.308;2023-02-14T17:21:36;4.40;;;4.00;;
37657;SDS011;23500;53.268;8.308;2023-02-14T17:24:02;4.80;;;4.20;;
37657;SDS011;23500;53.268;8.308;2023-02-14T17:26:28;4.70;;;4.30;;
37657;SDS011;23500;53.268;8.308;2023-02-14T17:28:54;4.82;;;4.38;;
37657;SDS011;23500;53.268;8.308;2023-02-14T17:31:19;4.80;;;4.30;;
37657;SDS011;23500;53.268;8.308;2023-02-14T17:33:45;4.30;;;3.90;;
37657;SDS011;23500;53.268;8.308;2023-02-14T17:36:12;4.30;;;3.90;;
37657;SDS011;23500;53.268;8.308;2023-02-14T17:38:39;4.28;;;3.88;;
37657;SDS011;23500;53.268;8.308;2023-02-14T17:41:14;4.88;;;4.38;;
37657;SDS011;23500;53.268;8.308;2023-02-14T17:43:42;4.53;;;4.13;;
37657;SDS011;23500;53.268;8.308;2023-02-14T17:46:08;4.20;;;3.80;;
37657;SDS011;23500;53.268;8.308;2023-02-14T17:48:34;4.68;;;4.28;;
37657;SDS011;23500;53.268;8.308;2023-02-14T17:51:04;4.47;;;4.07;;
37657;SDS011;23500;53.268;8.308;2023-02-14T17:53:30;4.32;;;3.92;;
37657;SDS011;23500;53.268;8.308;2023-02-14T17:56:02;4.70;;;4.30;;
37657;SDS011;23500;53.268;8.308;2023-02-14T17:58:29;4.90;;;4.50;;
37657;SDS011;23500;53.268;8.308;2023-02-14T18:00:59;4.50;;;4.10;;
37657;SDS011;23500;53.268;8.308;2023-02-14T18:03:26;6.28;;;4.40;;
37657;SDS011;23500;53.268;8.308;2023-02-14T18:05:51;4.45;;;3.80;;
37657;SDS011;23500;53.268;8.308;2023-02-14T18:08:22;4.97;;;4.50;;
37657;SDS011;23500;53.268;8.308;2023-02-14T18:10:50;4.40;;;3.97;;
37657;SDS011;23500;53.268;8.308;2023-02-14T18:13:15;4.53;;;4.13;;
37657;SDS011;23500;53.268;8.308;2023-02-14T18:15:41;5.07;;;4.55;;
37657;SDS011;23500;53.268;8.308;2023-02-14T18:18:07;4.80;;;4.30;;